PRINT OUT SECTION, show ยป

TAF EPBY 160530Z 1606/1706 25015KT 9999 BKN025
TEMPO 1606/1617 25020G35KT 8000 -SHRA SCT014 BKN020CB
TEMPO 1612/1617 4000 SHRA BKN007 BKN014CB
BECMG 1617/1620 02008KT 4000 -RADZ BR BKN005 OVC014=

TAF EPGD 160530Z 1606/1706 25014KT 9999 SCT006 BKN012
TEMPO 1606/1615 4500 -SHRA BKN005 BKN012CB
PROB40 TEMPO 1606/1608 2000 SHRAGS BKN003 BKN008CB
TEMPO 1606/1613 28020G35KT
BECMG 1613/1615 33010KT
PROB40 TEMPO 1615/1706 BKN004 BKN010=

TAF EPKK 160530Z 1606/1706 25012KT 9999 SCT036
TEMPO 1606/1617 27016G26KT
PROB30 TEMPO 1609/1617 SCT033CB
BECMG 1618/1621 24002KT=

TAF EPKT 160530Z 1606/1706 27010KT 9999 SCT033
TEMPO 1606/1617 28015G26KT
PROB40 TEMPO 1613/1617 SCT030CB
BECMG 1620/1623 21007KT=

TAF EPLB 160530Z 1606/1706 26015G25KT 9999 BKN030
TEMPO 1606/1616 28022G38KT
PROB40 TEMPO 1606/1608 -SHRA BKN012 BKN020CB
BECMG 1616/1619 25005KT=

TAF EPLL 160530Z 1606/1706 25015G25KT 9999 SCT030
TEMPO 1606/1618 27025G35KT
PROB40 TEMPO 1606/1614 28035G46KT
PROB40 TEMPO 1614/1618 -SHRA SCT040CB
BECMG 1618/1621 25005KT=

TAF EPMO 160530Z 1606/1706 25015KT 9999 SCT025
TEMPO 1606/1618 25022G35KT
PROB40 TEMPO 1606/1610 BKN012
PROB40 TEMPO 1610/1621 26032G45KT -SHRA SCT040CB
BECMG 1618/1621 25005KT=

TAF EPPO 160530Z 1606/1706 25015KT 9999 SCT035
TEMPO 1606/1618 27020G36KT SHRA BKN025CB
PROB30 TEMPO 1614/1616 3000 TSRA
BECMG 1621/1624 35012KT BKN014
TEMPO 1622/1706 4000 -RA BR BKN008=

TAF EPRZ 160530Z 1606/1706 21010KT 9999 BKN036
BECMG 1606/1609 27010KT
TEMPO 1606/1613 27015G25KT -SHRA BKN033CB
BECMG 1618/1621 20004KT=

TAF AMD EPSC 160542Z 1606/1706 26014KT 9999 BKN020
TEMPO 1606/1616 27018G28KT 4000 SHRA BKN008 BKN013CB
BECMG 1613/1616 35010KT
TEMPO 1616/1621 BKN013=

TAF EPSC 160530Z 1606/1706 24014KT 9999 SCT008 BKN012
TEMPO 1606/1616 27023G38KT 4000 SHRA BKN006 BKN012CB
BECMG 1613/1616 35010KT
TEMPO 1616/1706 BKN003 OVC006=

TAF EPWA 160530Z 1606/1706 25015KT 9999 SCT025
TEMPO 1606/1618 25018G28KT
PROB40 TEMPO 1606/1621 26025G38KT -SHRA SCT040CB
BECMG 1618/1621 25005KT=

TAF EPWR 160530Z 1606/1706 26017KT 9999 SCT040
TEMPO 1606/1616 27020G36KT SHRA BKN025CB
PROB30 TEMPO 1612/1616 3000 TSRA
BECMG 1618/1621 28007KT
TEMPO 1621/1706 SHRA BKN013 BKN020CB
BECMG 1703/1706 34010KT=